»·PEaware :: N196EC KSAN-KBTY

N196EC :: KSAN-KBTY

FLIGHT INFORMATION

Flight Status: Arrived
Operator: Privately registered:
United States
More flights under this callsign
Pilot: Adrián R. (20842)
Aircraft: SOCATA TBM-900
(TBM9)
More flights by this aircraft type
Origin: KSAN San Diego Intl-Lindbergh
United States
Destination: KBTY Beatty
United States
More flights between these airports :: More routes between these airports
Route: +BRDR7 JLI V460 MOMAR Q73 HAKMN CLARR V135 BTY
File this flight plan on PilotEdge
Remarks:
Altitude:
(Current/Filed)
310ft
Speed:
(Current/Filed)
276kts
Departed: 21-Nov-18 08:19 AM
Arrived: 21-Nov-18 09:33 AM
Distance/Time
Traveled:
249nm/1:13
Distance/Time
To Go:
Arrived

Flight Plot

Page will automatically refresh every two minutes.

Flight plan parsing failed; only flown route is shown


Map Options




Map Legend


Flown Route
Filed Route
Departure Airport
Arrival Airport
Navaid (VOR, NDB)
Fix

Horizontal Profiles

Position Reports

Time Latitude Longitude Heading Altitude Ground
Speed
21-Nov-18 07:41 32.732391 -117.177437 194 20ft 0kts
21-Nov-18 07:42 32.732391 -117.177437 194 20ft 0kts
21-Nov-18 07:43 32.732391 -117.177437 194 20ft 0kts
21-Nov-18 07:44 32.732391 -117.177437 194 20ft 0kts
21-Nov-18 07:45 32.732391 -117.177437 194 20ft 0kts
21-Nov-18 07:46 32.732391 -117.177437 194 20ft 0kts
21-Nov-18 07:47 32.732391 -117.177437 194 20ft 0kts
21-Nov-18 07:48 32.732391 -117.177437 194 20ft 0kts
21-Nov-18 07:49 32.732391 -117.177437 194 20ft 0kts
21-Nov-18 07:50 32.732391 -117.177437 194 20ft 0kts
21-Nov-18 07:51 32.732391 -117.177437 194 20ft 0kts
21-Nov-18 07:52 32.732391 -117.177437 194 20ft 0kts
21-Nov-18 07:53 32.732391 -117.177437 194 20ft 0kts
21-Nov-18 07:54 32.732391 -117.177437 194 20ft 0kts
21-Nov-18 07:55 32.732391 -117.177437 194 20ft 0kts
21-Nov-18 07:56 32.732391 -117.177437 194 20ft 0kts
21-Nov-18 07:57 32.732391 -117.177437 194 20ft 0kts
21-Nov-18 07:58 32.732391 -117.177437 194 20ft 0kts
21-Nov-18 07:59 32.732391 -117.177437 194 20ft 0kts
21-Nov-18 08:00 32.732391 -117.177437 194 20ft 0kts
21-Nov-18 08:01 32.732391 -117.177437 194 20ft 0kts
21-Nov-18 08:02 32.732391 -117.177437 194 20ft 0kts
21-Nov-18 08:03 32.732391 -117.177437 194 20ft 0kts
21-Nov-18 08:04 32.732391 -117.177437 194 20ft 0kts
21-Nov-18 08:05 32.732391 -117.177437 194 20ft 0kts
21-Nov-18 08:06 32.732391 -117.177437 194 20ft 0kts
21-Nov-18 08:07 32.732391 -117.177437 194 20ft 0kts
21-Nov-18 08:08 32.732391 -117.177437 194 20ft 0kts
21-Nov-18 08:09 32.732391 -117.177437 194 20ft 0kts
21-Nov-18 08:10 32.732391 -117.177437 194 20ft 0kts
21-Nov-18 08:11 32.732391 -117.177437 194 20ft 0kts
21-Nov-18 08:12 32.732391 -117.177437 194 20ft 0kts
21-Nov-18 08:13 32.732391 -117.177437 194 20ft 0kts
21-Nov-18 08:14 32.732391 -117.177437 194 20ft 0kts
21-Nov-18 08:15 32.732391 -117.177437 194 20ft 0kts
21-Nov-18 08:16 32.732391 -117.177437 194 20ft 0kts
21-Nov-18 08:17 32.732391 -117.177437 194 20ft 0kts
21-Nov-18 08:18 32.732391 -117.177437 194 20ft 0kts
21-Nov-18 08:19 32.732259 -117.177476 193 20ft 5kts
21-Nov-18 08:20 32.731195 -117.175819 111 23ft 6kts
21-Nov-18 08:21 32.730727 -117.175313 165 22ft 9kts
21-Nov-18 08:22 32.731305 -117.180293 288 17ft 95kts
21-Nov-18 08:23 32.742603 -117.220319 290 1641ft 147kts
21-Nov-18 08:24 32.756643 -117.267984 291 3614ft 157kts
21-Nov-18 08:25 32.751492 -117.312158 190 5461ft 168kts
21-Nov-18 08:26 32.716699 -117.278509 131 7500ft 173kts
21-Nov-18 08:27 32.682494 -117.236427 134 9419ft 182kts
21-Nov-18 08:28 32.645264 -117.191025 135 11067ft 208kts
21-Nov-18 08:29 32.619453 -117.132140 94 12705ft 218kts
21-Nov-18 08:30 32.615030 -117.058813 94 14253ft 227kts
21-Nov-18 08:31 32.610570 -116.982937 93 15722ft 235kts
21-Nov-18 08:32 32.617798 -116.904455 83 17237ft 244kts
21-Nov-18 08:33 32.625850 -116.823278 83 18740ft 254kts
21-Nov-18 08:34 32.660140 -116.759792 10 20197ft 242kts
21-Nov-18 08:35 32.725019 -116.736150 7 21709ft 247kts
21-Nov-18 08:36 32.780027 -116.716338 6 22973ft 251kts
21-Nov-18 08:37 32.858697 -116.687959 5 24760ft 255kts
21-Nov-18 08:38 32.914814 -116.667690 3 26115ft 253kts
21-Nov-18 08:39 32.992894 -116.639498 3 27953ft 255kts
21-Nov-18 08:40 33.050170 -116.618790 5 29071ft 261kts
21-Nov-18 08:41 33.118454 -116.593884 11 30209ft 275kts
21-Nov-18 08:42 33.168349 -116.538576 52 30219ft 326kts
21-Nov-18 08:43 33.221522 -116.448091 52 30188ft 346kts
21-Nov-18 08:44 33.286135 -116.337816 53 30148ft 356kts
21-Nov-18 08:45 33.331948 -116.259429 53 30144ft 357kts
21-Nov-18 08:46 33.388548 -116.162356 53 30145ft 357kts
21-Nov-18 08:47 33.445380 -116.064631 53 30144ft 357kts
21-Nov-18 08:48 33.502779 -115.967703 48 30147ft 357kts
21-Nov-18 08:49 33.584170 -115.911214 12 30150ft 341kts
21-Nov-18 08:50 33.672981 -115.870727 14 30148ft 343kts
21-Nov-18 08:51 33.761746 -115.829166 14 30150ft 343kts
21-Nov-18 08:52 33.848761 -115.786742 15 30150ft 344kts
21-Nov-18 08:53 33.933574 -115.745409 14 30153ft 343kts
21-Nov-18 08:54 34.020770 -115.704325 14 30154ft 344kts
21-Nov-18 08:55 34.108482 -115.662966 14 30149ft 344kts
21-Nov-18 08:56 34.197119 -115.621077 14 30149ft 343kts
21-Nov-18 08:57 34.286937 -115.583713 11 30151ft 341kts
21-Nov-18 08:58 34.376582 -115.547240 11 30169ft 341kts
21-Nov-18 08:59 34.466428 -115.510602 11 30181ft 341kts
21-Nov-18 09:00 34.554769 -115.510022 339 30188ft 317kts
21-Nov-18 09:01 34.643060 -115.525375 344 30188ft 322kts
21-Nov-18 09:02 34.731733 -115.538522 344 30198ft 322kts
21-Nov-18 09:03 34.820426 -115.551656 343 30200ft 322kts
21-Nov-18 09:04 34.908927 -115.564800 344 30208ft 322kts
21-Nov-18 09:05 34.997713 -115.578022 345 30204ft 323kts
21-Nov-18 09:06 35.086345 -115.591199 346 30240ft 323kts
21-Nov-18 09:07 35.173003 -115.604132 346 30250ft 323kts
21-Nov-18 09:08 35.262092 -115.617465 346 30259ft 323kts
21-Nov-18 09:09 35.351098 -115.630807 345 30257ft 323kts
21-Nov-18 09:10 35.440159 -115.644204 345 30258ft 323kts
21-Nov-18 09:11 35.529303 -115.657636 346 30258ft 323kts
21-Nov-18 09:12 35.618392 -115.671090 346 30258ft 324kts
21-Nov-18 09:13 35.700589 -115.703211 316 30264ft 304kts
21-Nov-18 09:14 35.767944 -115.765828 315 30249ft 304kts
21-Nov-18 09:15 35.835610 -115.829139 315 29777ft 318kts
21-Nov-18 09:16 35.908980 -115.897913 316 27997ft 341kts
21-Nov-18 09:17 35.984965 -115.969312 316 26034ft 345kts
21-Nov-18 09:18 36.060081 -116.040084 317 24231ft 330kts
21-Nov-18 09:19 36.128091 -116.104311 316 24219ft 297kts
21-Nov-18 09:20 36.195609 -116.168329 317 22906ft 323kts
21-Nov-18 09:21 36.267494 -116.236516 317 21103ft 316kts
21-Nov-18 09:22 36.333672 -116.299469 317 19253ft 288kts
21-Nov-18 09:23 36.395477 -116.358406 318 17431ft 277kts
21-Nov-18 09:24 36.455571 -116.415817 318 15620ft 270kts
21-Nov-18 09:25 36.513685 -116.471432 319 13808ft 260kts
21-Nov-18 09:26 36.571148 -116.526534 317 12026ft 263kts
21-Nov-18 09:27 36.591103 -116.609641 276 10239ft 255kts
21-Nov-18 09:28 36.600535 -116.694478 275 8667ft 240kts
21-Nov-18 09:29 36.634864 -116.759561 318 7323ft 217kts
21-Nov-18 09:30 36.684140 -116.787763 359 6246ft 190kts
21-Nov-18 09:31 36.732119 -116.786704 1 5565ft 168kts
21-Nov-18 09:32 36.774138 -116.786451 1 4896ft 125kts
21-Nov-18 09:33 36.804575 -116.786725 0 4319ft 87kts
21-Nov-18 09:34 36.828296 -116.786522 0 3904ft 84kts
21-Nov-18 09:35 36.851802 -116.786377 359 3215ft 84kts
21-Nov-18 09:36 36.864795 -116.786390 359 3144ft 19kts
21-Nov-18 09:37 36.868626 -116.785596 89 3169ft 9kts
21-Nov-18 09:38 36.867643 -116.784124 345 3165ft 1kts
21-Nov-18 09:39 36.867645 -116.784125 346 3165ft 0kts
21-Nov-18 09:40 36.867645 -116.784125 346 3165ft 0kts
21-Nov-18 09:41 36.867645 -116.784125 346 3165ft 0kts
21-Nov-18 09:42 36.867645 -116.784125 346 3165ft 0kts
21-Nov-18 09:43 36.867645 -116.784125 346 3165ft 0kts
21-Nov-18 09:44 36.867645 -116.784125 346 3165ft 0kts
21-Nov-18 09:45 36.867645 -116.784125 346 3165ft 0kts
21-Nov-18 09:46 36.867645 -116.784125 346 3165ft 0kts
21-Nov-18 09:47 36.867645 -116.784125 346 3165ft 0kts
21-Nov-18 09:48 36.867645 -116.784125 346 3165ft 0kts
21-Nov-18 09:49 36.867645 -116.784125 346 3165ft 0kts
21-Nov-18 09:50 36.867645 -116.784125 346 3165ft 0kts

Navigation Log

Ident Type
Flight plan parsing failed, navigation log unavailable